Time;durP1;ratioP1;P1;durP2;ratioP2;P2;SDS_P1;SDS_P2;PMS_P1;PMS_P2;Temp;Humidity;BMP_temperature;BMP_pressure;BME280_temperature;BME280_humidity;BME280_pressure;Samples;Min_cycle;Max_cycle;Signal;HPM_P1;HPM_P2
2021/04/23 00:03:43;;;;;;;3.73;2.87;;;8.50;57.00;;;;;;10453911;28;20197;-76
2021/04/23 00:08:48;;;;;;;3.37;2.70;;;8.50;57.40;;;;;;10453532;28;20229;-76
2021/04/23 00:13:50;;;;;;;6.43;3.13;;;8.50;57.30;;;;;;10453883;28;20244;-77
2021/04/23 00:18:52;;;;;;;6.00;3.43;;;8.50;57.30;;;;;;10453140;28;20218;-76
2021/04/23 00:23:56;;;;;;;6.53;3.17;;;8.50;58.10;;;;;;10452724;28;20202;-76
2021/04/23 00:28:58;;;;;;;3.57;3.03;;;8.50;57.70;;;;;;10454830;28;20228;-77
2021/04/23 00:34:00;;;;;;;4.10;3.20;;;8.40;57.80;;;;;;10456318;28;20232;-76
2021/04/23 00:39:03;;;;;;;6.20;2.90;;;8.40;58.10;;;;;;10453273;28;20289;-77
2021/04/23 00:44:06;;;;;;;4.97;3.80;;;8.30;58.10;;;;;;10445994;28;20205;-76
2021/04/23 00:49:07;;;;;;;4.30;3.30;;;8.30;58.20;;;;;;10452546;28;20712;-76
2021/04/23 00:54:12;;;;;;;5.50;3.70;;;8.20;58.60;;;;;;10452605;28;20225;-76
2021/04/23 00:59:16;;;;;;;6.93;3.80;;;8.20;58.80;;;;;;10450641;28;20720;-77
2021/04/23 01:04:20;;;;;;;4.50;3.87;;;8.20;58.90;;;;;;10449603;28;20818;-77
2021/04/23 01:09:26;;;;;;;6.27;4.20;;;8.10;58.60;;;;;;10453163;28;20590;-76
2021/04/23 01:14:28;;;;;;;8.67;4.43;;;8.00;59.00;;;;;;10452651;28;20247;-76
2021/04/23 01:19:30;;;;;;;6.80;3.63;;;8.00;59.10;;;;;;10438171;28;20217;-76
2021/04/23 01:24:33;;;;;;;7.30;4.43;;;8.00;59.50;;;;;;10445330;28;20205;-76
2021/04/23 01:29:34;;;;;;;8.30;4.53;;;7.90;59.30;;;;;;10453048;28;20339;-76
2021/04/23 01:34:38;;;;;;;5.00;4.20;;;7.80;59.10;;;;;;10433929;28;20229;-76
2021/04/23 01:39:42;;;;;;;8.00;4.60;;;7.80;59.40;;;;;;10451882;28;20696;-78
2021/04/23 01:44:44;;;;;;;4.93;4.53;;;7.70;59.30;;;;;;10459530;28;20693;-78
2021/04/23 01:49:46;;;;;;;7.37;5.40;;;7.60;59.80;;;;;;10455852;28;20227;-79
2021/04/23 01:54:50;;;;;;;6.73;4.40;;;7.50;60.10;;;;;;10453628;28;20510;-76
2021/04/23 01:59:52;;;;;;;5.33;4.73;;;7.50;60.10;;;;;;10451456;28;20247;-78
2021/04/23 02:04:53;;;;;;;6.30;5.00;;;7.50;60.80;;;;;;10457801;28;20662;-78
2021/04/23 02:09:56;;;;;;;11.33;5.40;;;7.50;61.10;;;;;;10454167;28;20770;-78
2021/04/23 02:14:57;;;;;;;7.23;5.30;;;7.40;60.90;;;;;;10457677;28;20221;-78
2021/04/23 02:19:59;;;;;;;8.40;5.60;;;7.40;61.60;;;;;;10454879;28;20247;-79
2021/04/23 02:25:02;;;;;;;5.83;4.70;;;7.30;62.20;;;;;;10459066;28;20395;-78
2021/04/23 02:30:07;;;;;;;5.10;4.23;;;7.30;61.80;;;;;;10463620;28;20316;-78
2021/04/23 02:35:11;;;;;;;8.80;4.60;;;7.20;61.70;;;;;;10449521;28;20225;-78
2021/04/23 02:40:16;;;;;;;5.30;4.43;;;7.10;62.10;;;;;;10466220;28;20225;-78
2021/04/23 02:45:23;;;;;;;5.07;4.17;;;7.10;62.30;;;;;;10444292;28;20197;-78
2021/04/23 02:50:28;;;;;;;5.23;4.57;;;7.10;62.30;;;;;;10462762;28;20332;-78
2021/04/23 02:55:31;;;;;;;8.10;4.37;;;7.10;62.30;;;;;;10461719;28;20225;-78
2021/04/23 03:00:36;;;;;;;7.70;4.10;;;7.00;62.40;;;;;;10460991;28;20217;-78
2021/04/23 03:05:40;;;;;;;5.67;4.17;;;7.00;62.80;;;;;;10460864;28;20200;-78
2021/04/23 03:10:45;;;;;;;5.03;4.17;;;6.90;62.30;;;;;;10461023;28;20225;-78
2021/04/23 03:15:47;;;;;;;7.03;4.13;;;6.90;63.30;;;;;;10460930;28;20248;-78
2021/04/23 03:20:50;;;;;;;7.07;4.53;;;6.90;63.30;;;;;;10460957;28;20298;-78
2021/04/23 03:25:52;;;;;;;7.67;4.70;;;6.90;63.50;;;;;;10460415;28;20217;-78
2021/04/23 03:31:06;;;;;;;4.83;3.97;;;6.90;63.70;;;;;;10477402;22;20700;-82
2021/04/23 03:36:09;;;;;;;4.60;4.20;;;6.80;63.50;;;;;;10463748;28;20213;-82
2021/04/23 03:41:14;;;;;;;5.03;4.53;;;6.80;63.90;;;;;;10470632;28;20259;-82
2021/04/23 03:46:16;;;;;;;6.10;4.90;;;6.80;64.20;;;;;;10459265;28;20601;-81
2021/04/23 03:51:20;;;;;;;4.33;3.90;;;6.80;64.30;;;;;;10442314;28;20596;-82
2021/04/23 03:56:23;;;;;;;5.10;4.10;;;6.70;64.20;;;;;;10442724;28;20319;-81
2021/04/23 04:01:25;;;;;;;4.60;4.20;;;6.70;64.50;;;;;;10438290;28;20257;-81
2021/04/23 04:06:27;;;;;;;5.80;4.67;;;6.70;64.60;;;;;;10456926;28;20262;-81
2021/04/23 04:11:29;;;;;;;10.47;5.93;;;6.70;65.20;;;;;;10436298;28;20271;-81
2021/04/23 04:16:31;;;;;;;8.13;6.63;;;6.60;64.90;;;;;;10460965;28;20279;-82
2021/04/23 04:21:34;;;;;;;13.93;6.50;;;6.60;64.90;;;;;;10451638;28;20235;-82
2021/04/23 04:26:36;;;;;;;8.63;5.47;;;6.60;65.70;;;;;;10456289;28;20280;-82
2021/04/23 04:31:38;;;;;;;10.70;5.40;;;6.60;65.40;;;;;;10453731;28;20267;-81
2021/04/23 04:36:40;;;;;;;11.87;5.60;;;6.50;65.30;;;;;;10458017;28;20233;-82
2021/04/23 04:41:42;;;;;;;8.50;5.43;;;6.50;65.60;;;;;;10458044;28;20377;-81
2021/04/23 04:46:44;;;;;;;7.67;5.30;;;6.40;65.70;;;;;;10454421;28;20684;-80
2021/04/23 04:51:46;;;;;;;7.27;5.40;;;6.40;65.70;;;;;;10423149;28;20233;-80
2021/04/23 04:56:48;;;;;;;8.67;5.13;;;6.40;66.60;;;;;;10451733;28;20220;-80
2021/04/23 05:01:50;;;;;;;5.70;5.20;;;6.40;66.40;;;;;;10438066;28;20225;-80
2021/04/23 05:06:52;;;;;;;8.20;5.50;;;6.50;66.80;;;;;;10437960;28;20205;-81
2021/04/23 05:11:54;;;;;;;7.97;5.37;;;6.50;66.80;;;;;;10458839;28;20586;-82
2021/04/23 05:16:59;;;;;;;8.57;5.23;;;6.50;67.30;;;;;;10468222;28;20205;-83
2021/04/23 05:22:04;;;;;;;9.00;6.03;;;6.60;67.20;;;;;;10468332;28;20599;-83
2021/04/23 05:27:06;;;;;;;8.03;5.23;;;6.60;67.20;;;;;;10456331;28;20202;-83
2021/04/23 05:32:08;;;;;;;7.17;5.20;;;6.70;67.30;;;;;;10475223;28;20232;-82
2021/04/23 05:37:10;;;;;;;9.50;5.10;;;6.80;67.20;;;;;;10459593;28;20228;-83
2021/04/23 05:42:13;;;;;;;6.10;4.80;;;6.90;67.90;;;;;;10461833;28;20271;-83
2021/04/23 05:47:16;;;;;;;12.30;4.53;;;7.00;67.30;;;;;;10441943;28;20203;-83
2021/04/23 05:52:18;;;;;;;6.80;5.07;;;7.20;66.20;;;;;;10461948;28;20221;-82
2021/04/23 05:57:20;;;;;;;7.60;5.00;;;7.20;66.70;;;;;;10465046;28;20228;-82
2021/04/23 06:02:22;;;;;;;7.97;3.97;;;7.30;66.90;;;;;;10450494;28;20225;-82
2021/04/23 06:07:24;;;;;;;9.70;5.30;;;7.40;67.50;;;;;;10475262;28;20275;-83
2021/04/23 06:12:26;;;;;;;8.60;6.10;;;7.50;66.80;;;;;;10462305;28;20263;-83
2021/04/23 06:17:28;;;;;;;7.80;5.70;;;7.60;67.40;;;;;;10448148;28;20292;-82
2021/04/23 06:22:30;;;;;;;10.03;6.43;;;7.70;67.40;;;;;;10453944;28;20224;-84
2021/04/23 06:27:32;;;;;;;9.50;6.20;;;7.80;67.20;;;;;;10430777;28;20722;-84
2021/04/23 06:32:55;;;;;;;8.97;6.37;;;7.90;67.00;;;;;;10448478;28;20245;-84
2021/04/23 06:37:58;;;;;;;10.23;6.57;;;8.10;67.00;;;;;;10432319;28;20373;-85
2021/04/23 06:43:00;;;;;;;11.27;6.87;;;8.20;65.70;;;;;;10453961;28;20209;-82
2021/04/23 06:48:04;;;;;;;9.03;6.10;;;8.40;66.00;;;;;;10479911;28;20227;-82
2021/04/23 06:53:09;;;;;;;11.07;7.47;;;8.50;64.50;;;;;;10440496;28;20678;-83
2021/04/23 06:58:13;;;;;;;16.33;8.50;;;8.60;64.70;;;;;;10468315;28;20200;-83
2021/04/23 07:03:15;;;;;;;10.97;7.93;;;8.80;65.30;;;;;;10432379;28;20213;-83
2021/04/23 07:08:17;;;;;;;9.03;7.50;;;8.90;63.30;;;;;;10437418;28;20196;-82
2021/04/23 07:13:19;;;;;;;10.50;8.37;;;9.10;63.70;;;;;;10454497;28;20252;-82
2021/04/23 07:18:21;;;;;;;9.07;6.90;;;9.20;62.50;;;;;;10448725;28;20684;-83
2021/04/23 07:23:23;;;;;;;9.03;7.73;;;9.30;62.20;;;;;;10478147;28;20332;-82
2021/04/23 07:28:26;;;;;;;14.10;7.70;;;9.50;62.30;;;;;;10446098;28;20201;-82
2021/04/23 07:33:27;;;;;;;7.77;6.97;;;9.70;61.30;;;;;;10455069;28;20234;-84
2021/04/23 07:38:32;;;;;;;8.73;7.03;;;10.10;60.40;;;;;;10471161;28;20259;-83
2021/04/23 07:43:35;;;;;;;10.43;7.10;;;10.60;59.10;;;;;;10454586;28;20201;-83
2021/04/23 07:48:37;;;;;;;7.77;6.97;;;11.20;58.60;;;;;;10442790;28;20211;-83
2021/04/23 07:53:39;;;;;;;9.77;6.20;;;11.70;57.30;;;;;;10431196;28;20231;-83
2021/04/23 07:58:42;;;;;;;13.37;7.20;;;12.10;56.40;;;;;;10444031;28;20225;-83
2021/04/23 08:03:44;;;;;;;10.37;6.83;;;12.50;54.40;;;;;;10455039;28;20196;-83
2021/04/23 08:08:45;;;;;;;10.50;6.23;;;12.90;54.70;;;;;;10467623;28;20291;-83
2021/04/23 08:13:48;;;;;;;11.00;6.30;;;13.20;54.90;;;;;;10467199;28;20217;-83
2021/04/23 08:18:53;;;;;;;9.10;6.40;;;13.50;54.10;;;;;;10446422;28;20221;-83
2021/04/23 08:24:06;;;;;;;7.60;5.73;;;13.80;52.50;;;;;;10448433;28;20822;-83
2021/04/23 08:29:11;;;;;;;8.83;5.13;;;14.20;52.20;;;;;;10465587;28;20217;-83
2021/04/23 08:34:14;;;;;;;8.33;5.23;;;14.40;49.60;;;;;;10459372;28;20307;-83
2021/04/23 08:39:16;;;;;;;6.63;4.10;;;14.80;50.90;;;;;;10449609;28;20241;-83
2021/04/23 08:44:19;;;;;;;6.60;5.00;;;15.20;49.40;;;;;;10463346;28;20209;-83
2021/04/23 08:49:22;;;;;;;8.00;6.20;;;15.50;48.80;;;;;;10466306;28;20651;-83
2021/04/23 08:54:24;;;;;;;10.47;5.70;;;15.80;47.20;;;;;;10441934;28;20245;-83
2021/04/23 08:59:31;;;;;;;8.93;6.20;;;15.90;47.40;;;;;;10464615;28;20224;-83
2021/04/23 09:04:36;;;;;;;7.27;5.60;;;16.00;47.50;;;;;;10465975;28;20197;-83
2021/04/23 09:09:45;;;;;;;9.10;5.67;;;16.10;47.10;;;;;;10464023;28;20375;-83
2021/04/23 09:14:53;;;;;;;11.87;5.20;;;16.30;45.70;;;;;;10442700;28;20221;-83
2021/04/23 09:19:59;;;;;;;14.23;6.30;;;16.40;44.90;;;;;;10443432;28;20239;-83
2021/04/23 09:25:05;;;;;;;12.97;6.47;;;16.40;46.00;;;;;;10465163;28;20205;-83
2021/04/23 09:30:21;;;;;;;6.80;5.70;;;16.70;45.80;;;;;;10479845;22;20662;-79
2021/04/23 09:35:26;;;;;;;8.40;6.40;;;17.10;45.70;;;;;;10492746;28;20738;-79
2021/04/23 09:40:31;;;;;;;7.10;5.63;;;17.40;44.40;;;;;;10487167;28;20224;-79
2021/04/23 09:45:46;;;;;;;9.10;5.70;;;17.70;44.50;;;;;;10494419;28;20197;-79
2021/04/23 09:50:48;;;;;;;7.73;5.40;;;17.80;44.00;;;;;;10486699;28;20220;-79
2021/04/23 09:55:55;;;;;;;11.53;6.30;;;18.00;44.10;;;;;;10487647;28;20228;-79
2021/04/23 10:00:58;;;;;;;8.63;5.30;;;18.20;44.60;;;;;;10489900;28;20228;-79
2021/04/23 10:06:21;;;;;;;9.97;5.93;;;18.40;42.80;;;;;;10487205;28;20612;-79
2021/04/23 10:11:40;;;;;;;7.37;5.03;;;18.60;42.20;;;;;;10469127;28;20762;-79
2021/04/23 10:16:43;;;;;;;7.87;5.37;;;18.40;42.00;;;;;;10489476;28;20219;-79
2021/04/23 10:21:45;;;;;;;12.40;6.30;;;17.90;41.30;;;;;;10488091;28;20291;-79
2021/04/23 10:26:47;;;;;;;7.43;5.70;;;17.40;41.40;;;;;;10492479;28;20208;-79
2021/04/23 10:31:53;;;;;;;8.40;6.00;;;16.70;42.60;;;;;;10479608;28;20247;-79
2021/04/23 10:36:55;;;;;;;9.17;5.67;;;15.90;42.80;;;;;;10486312;28;20294;-79
2021/04/23 10:41:57;;;;;;;9.97;6.43;;;15.50;44.50;;;;;;10472279;28;20683;-79
2021/04/23 10:46:59;;;;;;;12.27;5.63;;;15.20;45.30;;;;;;10491162;28;20219;-79
2021/04/23 10:52:22;;;;;;;8.50;6.20;;;15.10;45.20;;;;;;10495234;28;20691;-79
2021/04/23 10:57:53;;;;;;;5.93;3.83;;;14.90;43.20;;;;;;10490532;28;20575;-79
2021/04/23 11:03:23;;;;;;;7.30;4.63;;;14.70;43.80;;;;;;10491336;28;20232;-79
2021/04/23 11:08:26;;;;;;;5.40;4.83;;;14.70;42.40;;;;;;10489159;28;20277;-79
2021/04/23 11:13:29;;;;;;;7.30;5.50;;;14.60;44.70;;;;;;10490419;28;20281;-79
2021/04/23 11:18:32;;;;;;;10.50;5.10;;;14.60;44.20;;;;;;10466483;28;20258;-79
2021/04/23 11:24:07;;;;;;;6.70;4.80;;;14.50;43.90;;;;;;10495808;28;20213;-79
2021/04/23 11:29:12;;;;;;;7.57;5.77;;;14.40;44.90;;;;;;10489562;28;20294;-79
2021/04/23 11:39:45;;;;;;;5.93;4.70;;;14.40;45.50;;;;;;10559261;27;20534;-78
2021/04/23 11:44:53;;;;;;;7.30;4.83;;;14.40;43.70;;;;;;10500517;28;20203;-78
2021/04/23 11:50:00;;;;;;;7.60;5.90;;;14.40;43.60;;;;;;10517213;28;20296;-78
2021/04/23 11:55:10;;;;;;;6.50;4.70;;;14.40;41.20;;;;;;10518391;28;20208;-78
2021/04/23 12:00:14;;;;;;;6.43;5.40;;;14.30;42.70;;;;;;10527967;28;20313;-78
2021/04/23 12:05:37;;;;;;;7.17;4.90;;;14.30;41.90;;;;;;10522299;28;20302;-78
2021/04/23 12:10:42;;;;;;;7.73;5.57;;;14.30;44.30;;;;;;10517225;28;20220;-78
2021/04/23 12:15:45;;;;;;;6.07;4.80;;;14.30;40.60;;;;;;10513604;28;20267;-78
2021/04/23 12:20:49;;;;;;;7.00;5.03;;;14.30;42.30;;;;;;10499887;28;20593;-78
2021/04/23 12:25:55;;;;;;;4.70;4.30;;;14.40;41.70;;;;;;10507224;28;20196;-78
2021/04/23 12:31:01;;;;;;;5.50;5.00;;;14.40;43.60;;;;;;10516393;28;20761;-78
2021/04/23 12:36:18;;;;;;;5.73;5.13;;;14.40;41.20;;;;;;10510615;28;20239;-78
2021/04/23 12:41:27;;;;;;;6.13;4.70;;;14.50;40.50;;;;;;10492102;28;20522;-78
2021/04/23 12:46:33;;;;;;;6.10;4.90;;;14.50;41.70;;;;;;10489210;28;20717;-78
2021/04/23 12:51:39;;;;;;;6.50;4.80;;;14.50;42.40;;;;;;10461721;28;20216;-78
2021/04/23 12:56:55;;;;;;;5.07;4.60;;;14.50;43.00;;;;;;10461337;28;20271;-78
2021/04/23 13:02:00;;;;;;;6.60;5.10;;;14.50;42.70;;;;;;10470235;28;20221;-78
2021/04/23 13:07:12;;;;;;;6.80;4.53;;;14.50;43.40;;;;;;10468400;28;20196;-78
2021/04/23 13:12:29;;;;;;;5.07;4.57;;;14.60;42.40;;;;;;10486265;28;20233;-78
2021/04/23 13:17:49;;;;;;;5.13;4.50;;;14.70;41.60;;;;;;10475910;28;20599;-78
2021/04/23 13:22:58;;;;;;;8.10;5.70;;;14.70;42.40;;;;;;10487913;28;20278;-78
2021/04/23 13:28:18;;;;;;;6.50;5.83;;;14.80;42.70;;;;;;10460212;28;20196;-78
2021/04/23 13:33:24;;;;;;;5.93;5.30;;;14.90;43.50;;;;;;10483363;28;20220;-78
2021/04/23 13:38:29;;;;;;;6.00;5.27;;;14.90;41.00;;;;;;10470590;28;20224;-78
2021/04/23 13:43:32;;;;;;;10.63;5.87;;;14.90;43.60;;;;;;10466811;28;20660;-78
2021/04/23 13:48:35;;;;;;;4.87;4.40;;;14.90;41.40;;;;;;10478148;28;20824;-78
2021/04/23 13:53:37;;;;;;;9.50;5.63;;;14.90;43.20;;;;;;10490865;28;20270;-78
2021/04/23 13:59:10;;;;;;;6.80;5.23;;;15.00;42.40;;;;;;10476593;28;20259;-78
2021/04/23 14:04:14;;;;;;;5.83;4.57;;;15.00;43.20;;;;;;10438566;28;20197;-78
2021/04/23 14:09:18;;;;;;;5.50;4.20;;;15.10;40.40;;;;;;10489012;28;20303;-78
2021/04/23 14:14:23;;;;;;;7.80;4.93;;;15.10;40.80;;;;;;10489621;28;20204;-78
2021/04/23 14:19:25;;;;;;;5.70;4.40;;;15.10;42.30;;;;;;10490850;28;20303;-78
2021/04/23 14:24:27;;;;;;;9.30;4.60;;;15.10;41.20;;;;;;10482889;28;20204;-78
2021/04/23 14:29:30;;;;;;;5.93;4.43;;;15.20;40.30;;;;;;10479053;28;20296;-78
2021/04/23 14:34:32;;;;;;;6.37;4.80;;;15.20;42.30;;;;;;10492322;28;20261;-78
2021/04/23 14:39:34;;;;;;;6.60;4.90;;;15.40;40.20;;;;;;10490231;28;20252;-78
2021/04/23 14:44:36;;;;;;;4.77;4.37;;;15.50;37.60;;;;;;10481127;28;20718;-78
2021/04/23 14:49:39;;;;;;;4.17;3.53;;;15.50;40.70;;;;;;10481438;28;20220;-78
2021/04/23 14:54:40;;;;;;;6.37;4.50;;;15.50;39.30;;;;;;10493103;28;20204;-78
2021/04/23 14:59:43;;;;;;;6.80;4.97;;;15.50;38.70;;;;;;10485970;28;20229;-78
2021/04/23 15:04:45;;;;;;;10.33;4.57;;;15.50;38.10;;;;;;10487700;28;20197;-78
2021/04/23 15:09:48;;;;;;;5.27;4.17;;;15.60;38.10;;;;;;10480128;28;20221;-78
2021/04/23 15:14:50;;;;;;;6.43;4.13;;;15.60;37.30;;;;;;10445672;28;20209;-78
2021/04/23 15:19:52;;;;;;;7.13;5.07;;;15.50;40.60;;;;;;10457869;28;20263;-78
2021/04/23 15:24:54;;;;;;;7.80;4.63;;;15.40;41.70;;;;;;10469178;28;20196;-78
2021/04/23 15:35:19;;;;;;;3.97;3.67;;;15.60;42.20;;;;;;2950347;26;20223;-81
2021/04/23 15:40:23;;;;;;;8.30;5.20;;;16.00;41.30;;;;;;10488443;28;20223;-81
2021/04/23 15:45:26;;;;;;;5.17;4.17;;;16.20;40.00;;;;;;10518580;28;20191;-82
2021/04/23 15:50:31;;;;;;;5.90;5.00;;;16.20;42.40;;;;;;10518169;28;20228;-85
2021/04/23 15:55:33;;;;;;;4.90;4.50;;;16.10;39.00;;;;;;10516045;28;20224;-80
2021/04/23 16:00:37;;;;;;;6.40;5.80;;;15.90;36.00;;;;;;10510325;28;20289;-81
2021/04/23 16:05:40;;;;;;;9.33;4.70;;;15.80;37.80;;;;;;10497046;28;20205;-85
2021/04/23 16:10:41;;;;;;;5.93;4.90;;;15.80;37.60;;;;;;10528084;28;20227;-81
2021/04/23 16:15:43;;;;;;;7.10;5.40;;;15.80;39.80;;;;;;10492243;28;20215;-82
2021/04/23 16:20:48;;;;;;;5.30;4.50;;;15.70;39.70;;;;;;10501546;28;20231;-82
2021/04/23 16:25:52;;;;;;;12.23;5.47;;;15.60;41.30;;;;;;10516546;28;20275;-82
2021/04/23 16:30:53;;;;;;;5.60;4.80;;;15.60;42.00;;;;;;10533293;28;20220;-80
2021/04/23 16:35:56;;;;;;;6.03;5.03;;;15.50;41.40;;;;;;10541792;28;20301;-80
2021/04/23 16:40:58;;;;;;;5.83;4.50;;;15.40;42.30;;;;;;10552359;28;20220;-80
2021/04/23 16:46:00;;;;;;;6.53;4.67;;;15.40;43.40;;;;;;10532466;28;20231;-81
2021/04/23 16:51:05;;;;;;;8.47;5.80;;;15.40;41.30;;;;;;10550404;28;20228;-81
2021/04/23 16:56:07;;;;;;;5.63;4.87;;;15.40;42.40;;;;;;10515084;28;20216;-81
2021/04/23 17:01:11;;;;;;;6.20;5.30;;;15.40;42.00;;;;;;10495451;28;20707;-81
2021/04/23 17:06:14;;;;;;;4.87;4.47;;;15.50;44.20;;;;;;10521471;28;20210;-81
2021/04/23 17:11:16;;;;;;;6.33;5.70;;;15.40;42.70;;;;;;10541133;28;20278;-84
2021/04/23 17:16:18;;;;;;;6.60;4.63;;;15.40;42.10;;;;;;10561184;28;20223;-81
2021/04/23 17:21:20;;;;;;;6.97;4.67;;;15.40;43.50;;;;;;10558947;28;20219;-81
2021/04/23 17:26:22;;;;;;;5.60;4.53;;;15.30;44.50;;;;;;10539581;28;20235;-81
2021/04/23 17:31:24;;;;;;;7.63;4.67;;;15.30;43.50;;;;;;10522631;28;20217;-82
2021/04/23 17:36:26;;;;;;;6.70;4.40;;;15.30;45.90;;;;;;10503957;28;20220;-82
2021/04/23 17:41:28;;;;;;;5.90;4.57;;;15.20;46.20;;;;;;10561120;28;20735;-81
2021/04/23 17:46:30;;;;;;;5.07;4.57;;;15.10;45.60;;;;;;10521660;28;20346;-81
2021/04/23 17:51:33;;;;;;;5.50;4.83;;;15.00;44.70;;;;;;10526237;28;20258;-83
2021/04/23 17:56:34;;;;;;;5.03;3.93;;;15.00;46.90;;;;;;10535761;28;20634;-81
2021/04/23 18:01:36;;;;;;;9.50;4.77;;;15.00;48.40;;;;;;10515004;28;20298;-82
2021/04/23 18:06:39;;;;;;;5.43;3.80;;;14.90;46.50;;;;;;10562377;28;20204;-81
2021/04/23 18:11:41;;;;;;;9.67;7.87;;;14.90;47.70;;;;;;10545042;28;20655;-82
2021/04/23 18:16:43;;;;;;;7.90;5.53;;;14.80;47.40;;;;;;10509628;28;20216;-80
2021/04/23 18:21:46;;;;;;;6.63;6.03;;;14.70;49.70;;;;;;10522113;28;20311;-82
2021/04/23 18:26:48;;;;;;;7.40;6.00;;;14.50;51.80;;;;;;10517524;28;20200;-83
2021/04/23 18:31:50;;;;;;;6.00;4.70;;;14.40;49.20;;;;;;10525556;28;20246;-82
2021/04/23 18:36:53;;;;;;;7.73;4.53;;;14.40;48.50;;;;;;10515098;28;20254;-82
2021/04/23 18:41:55;;;;;;;5.87;5.27;;;14.30;47.10;;;;;;10485916;28;20238;-84
2021/04/23 18:46:57;;;;;;;5.87;5.00;;;14.30;47.20;;;;;;10508215;28;20209;-84
2021/04/23 18:52:00;;;;;;;10.93;4.87;;;14.20;47.90;;;;;;10526062;28;20264;-83
2021/04/23 18:57:03;;;;;;;10.60;6.20;;;14.10;48.00;;;;;;10504512;28;20228;-84
2021/04/23 19:02:05;;;;;;;9.70;8.70;;;13.90;48.40;;;;;;10497592;28;20297;-84
2021/04/23 19:07:07;;;;;;;5.90;5.40;;;13.80;48.30;;;;;;10496046;28;20728;-84
2021/04/23 19:12:10;;;;;;;4.90;4.33;;;13.60;48.80;;;;;;10503836;28;20238;-84
2021/04/23 19:17:12;;;;;;;6.47;5.00;;;13.50;49.00;;;;;;10509219;28;20257;-84
2021/04/23 19:22:15;;;;;;;6.53;5.77;;;13.30;49.30;;;;;;10500927;28;20216;-82
2021/04/23 19:27:17;;;;;;;11.63;10.40;;;13.20;50.00;;;;;;10501111;28;20204;-82
2021/04/23 19:32:19;;;;;;;6.87;5.23;;;13.00;50.00;;;;;;10488527;28;20595;-83
2021/04/23 19:37:24;;;;;;;7.03;6.33;;;12.90;49.90;;;;;;10509999;28;20223;-83
2021/04/23 19:42:26;;;;;;;10.43;8.40;;;12.80;50.00;;;;;;10505325;28;20216;-82
2021/04/23 19:47:29;;;;;;;8.20;6.77;;;12.70;50.70;;;;;;10480357;28;20274;-79
2021/04/23 19:52:32;;;;;;;8.30;7.50;;;12.60;50.40;;;;;;10499956;28;20232;-83
2021/04/23 19:57:34;;;;;;;14.13;10.67;;;12.50;50.60;;;;;;10528156;28;20230;-83
2021/04/23 20:02:37;;;;;;;7.90;7.10;;;12.40;51.00;;;;;;10520207;28;20235;-83
2021/04/23 20:07:40;;;;;;;7.50;6.67;;;12.30;51.20;;;;;;10504652;28;20207;-82
2021/04/23 20:12:43;;;;;;;6.60;5.90;;;12.20;51.30;;;;;;10503536;28;20730;-80
2021/04/23 20:17:45;;;;;;;6.73;5.90;;;12.10;51.40;;;;;;10487504;28;20223;-83
2021/04/23 20:22:49;;;;;;;9.93;7.10;;;12.00;51.60;;;;;;10525954;28;20357;-81
2021/04/23 20:27:51;;;;;;;9.20;7.00;;;11.90;51.80;;;;;;10505493;28;20199;-82
2021/04/23 20:32:55;;;;;;;6.90;5.10;;;11.90;51.80;;;;;;10534227;28;20224;-80
2021/04/23 20:37:57;;;;;;;8.97;6.00;;;11.80;52.50;;;;;;10508165;28;20224;-82
2021/04/23 20:42:59;;;;;;;8.63;6.50;;;11.70;52.10;;;;;;10523345;28;20230;-81
2021/04/23 20:48:01;;;;;;;12.60;9.57;;;11.70;52.00;;;;;;10523798;28;20203;-81
2021/04/23 20:53:03;;;;;;;10.70;8.97;;;11.60;52.00;;;;;;10501400;28;20243;-81
2021/04/23 20:58:05;;;;;;;12.03;9.57;;;11.60;52.80;;;;;;10553500;28;20315;-81
2021/04/23 21:03:07;;;;;;;9.93;6.60;;;11.50;52.70;;;;;;10537058;28;20243;-82
2021/04/23 21:08:09;;;;;;;6.43;4.97;;;11.50;52.90;;;;;;10507464;28;20223;-82
2021/04/23 21:13:11;;;;;;;8.00;4.40;;;11.40;52.40;;;;;;10526088;28;20228;-83
2021/04/23 21:18:13;;;;;;;5.90;4.57;;;11.40;52.00;;;;;;10523686;28;20219;-82
2021/04/23 21:23:16;;;;;;;5.67;4.77;;;11.40;52.30;;;;;;10521798;28;20337;-82
2021/04/23 21:28:17;;;;;;;5.07;4.53;;;11.40;52.70;;;;;;10540108;28;20208;-82
2021/04/23 21:33:20;;;;;;;5.87;5.40;;;11.40;52.40;;;;;;10532514;28;20228;-82
2021/04/23 21:38:22;;;;;;;7.60;6.90;;;11.30;52.60;;;;;;10540127;28;20220;-82
2021/04/23 21:43:24;;;;;;;6.97;6.10;;;11.30;52.70;;;;;;10547212;28;20227;-82
2021/04/23 21:48:26;;;;;;;5.00;4.50;;;11.30;52.70;;;;;;10529280;28;20208;-81
2021/04/23 21:53:35;;;;;;;6.60;4.50;;;11.30;52.70;;;;;;10545797;28;20247;-82
2021/04/23 21:58:36;;;;;;;6.07;4.73;;;11.30;52.70;;;;;;10548290;28;20219;-81
2021/04/23 22:03:38;;;;;;;7.03;5.20;;;11.20;52.70;;;;;;10539810;28;20250;-81
2021/04/23 22:08:42;;;;;;;6.00;5.03;;;11.20;52.70;;;;;;10512455;28;20322;-82
2021/04/23 22:13:45;;;;;;;8.10;5.47;;;11.20;52.60;;;;;;10518858;28;20259;-82
2021/04/23 22:18:47;;;;;;;6.17;5.57;;;11.10;52.80;;;;;;10524064;28;20250;-81
2021/04/23 22:23:49;;;;;;;6.23;4.40;;;11.10;52.70;;;;;;10492616;28;20255;-81
2021/04/23 22:28:51;;;;;;;4.87;4.47;;;11.10;52.40;;;;;;10504133;28;20204;-83
2021/04/23 22:33:54;;;;;;;5.30;4.80;;;11.00;52.80;;;;;;10462167;28;20305;-83
2021/04/23 22:38:57;;;;;;;6.57;5.13;;;11.00;52.70;;;;;;10489493;28;20948;-81
2021/04/23 22:43:58;;;;;;;5.60;4.63;;;11.00;53.00;;;;;;10470289;28;20796;-81
2021/04/23 22:49:00;;;;;;;6.43;5.07;;;10.90;52.70;;;;;;10502386;28;20259;-82
2021/04/23 22:54:04;;;;;;;5.50;5.00;;;10.90;52.60;;;;;;10496005;28;20278;-83
2021/04/23 22:59:17;;;;;;;5.33;4.83;;;10.90;52.70;;;;;;10496477;28;20616;-82
2021/04/23 23:04:20;;;;;;;5.10;4.60;;;10.80;52.90;;;;;;10523883;28;20707;-82
2021/04/23 23:09:26;;;;;;;4.87;4.43;;;10.80;53.20;;;;;;10539722;28;20232;-82
2021/04/23 23:14:28;;;;;;;5.47;4.70;;;10.70;53.40;;;;;;10546795;28;20220;-82
2021/04/23 23:19:32;;;;;;;7.43;6.03;;;10.70;53.60;;;;;;10534746;28;20224;-82
2021/04/23 23:24:37;;;;;;;10.30;5.77;;;10.60;54.30;;;;;;10480177;28;20193;-82
2021/04/23 23:29:43;;;;;;;6.40;4.80;;;10.60;54.00;;;;;;10480928;28;20192;-83
2021/04/23 23:34:45;;;;;;;9.70;5.57;;;10.60;53.70;;;;;;10536486;28;20203;-81
2021/04/23 23:39:58;;;;;;;6.67;5.43;;;10.60;53.90;;;;;;10523590;28;20249;-81
2021/04/23 23:46:23;;;;;;;5.37;4.87;;;10.60;54.20;;;;;;10511029;28;20207;-82
2021/04/23 23:51:25;;;;;;;5.53;5.03;;;10.50;54.10;;;;;;10456947;28;20232;-82
2021/04/23 23:56:36;;;;;;;10.10;5.57;;;10.40;54.50;;;;;;10515095;28;20277;-81
